sensor_id;sensor_type;location;lat;lon;timestamp;P1;durP1;ratioP1;P2;durP2;ratioP2
74967;SDS011;63523;51.880;12.630;2023-07-20T00:02:05;13.43;;;5.47;;
74967;SDS011;63523;51.880;12.630;2023-07-20T00:04:32;14.77;;;6.20;;
74967;SDS011;63523;51.880;12.630;2023-07-20T00:06:57;13.17;;;5.80;;
74967;SDS011;63523;51.880;12.630;2023-07-20T00:09:24;10.20;;;4.70;;
74967;SDS011;63523;51.880;12.630;2023-07-20T00:11:50;10.10;;;3.93;;
74967;SDS011;63523;51.880;12.630;2023-07-20T00:14:16;8.15;;;3.47;;
74967;SDS011;63523;51.880;12.630;2023-07-20T00:16:42;6.07;;;2.60;;
74967;SDS011;63523;51.880;12.630;2023-07-20T00:19:07;6.78;;;2.88;;
74967;SDS011;63523;51.880;12.630;2023-07-20T00:21:33;6.00;;;2.60;;
74967;SDS011;63523;51.880;12.630;2023-07-20T00:23:58;5.33;;;2.40;;
74967;SDS011;63523;51.880;12.630;2023-07-20T00:26:23;5.13;;;2.20;;
74967;SDS011;63523;51.880;12.630;2023-07-20T00:28:49;4.82;;;2.50;;
74967;SDS011;63523;51.880;12.630;2023-07-20T00:31:15;5.50;;;2.30;;
74967;SDS011;63523;51.880;12.630;2023-07-20T00:33:40;5.97;;;2.30;;
74967;SDS011;63523;51.880;12.630;2023-07-20T00:36:06;5.88;;;2.28;;
74967;SDS011;63523;51.880;12.630;2023-07-20T00:38:31;4.30;;;2.23;;
74967;SDS011;63523;51.880;12.630;2023-07-20T00:40:56;4.77;;;2.27;;
74967;SDS011;63523;51.880;12.630;2023-07-20T00:43:22;6.93;;;2.40;;
74967;SDS011;63523;51.880;12.630;2023-07-20T00:45:47;8.20;;;3.60;;
74967;SDS011;63523;51.880;12.630;2023-07-20T00:48:13;6.03;;;2.80;;
74967;SDS011;63523;51.880;12.630;2023-07-20T00:50:39;9.82;;;4.43;;
74967;SDS011;63523;51.880;12.630;2023-07-20T00:53:05;15.32;;;6.35;;
74967;SDS011;63523;51.880;12.630;2023-07-20T00:55:31;15.73;;;5.97;;
74967;SDS011;63523;51.880;12.630;2023-07-20T00:57:56;15.90;;;7.22;;
74967;SDS011;63523;51.880;12.630;2023-07-20T01:00:22;19.60;;;7.82;;
74967;SDS011;63523;51.880;12.630;2023-07-20T01:02:48;15.80;;;6.60;;
74967;SDS011;63523;51.880;12.630;2023-07-20T01:05:13;11.57;;;4.97;;
74967;SDS011;63523;51.880;12.630;2023-07-20T01:10:31;8.57;;;3.60;;
74967;SDS011;63523;51.880;12.630;2023-07-20T01:13:04;6.78;;;2.70;;
74967;SDS011;63523;51.880;12.630;2023-07-20T01:15:33;5.32;;;2.88;;
74967;SDS011;63523;51.880;12.630;2023-07-20T01:17:58;4.68;;;2.60;;
74967;SDS011;63523;51.880;12.630;2023-07-20T01:20:26;5.88;;;2.50;;
74967;SDS011;63523;51.880;12.630;2023-07-20T01:23:08;5.93;;;2.83;;
74967;SDS011;63523;51.880;12.630;2023-07-20T01:25:56;7.65;;;3.03;;
74967;SDS011;63523;51.880;12.630;2023-07-20T01:31:21;9.05;;;3.90;;
74967;SDS011;63523;51.880;12.630;2023-07-20T01:33:48;9.50;;;4.50;;
74967;SDS011;63523;51.880;12.630;2023-07-20T01:36:15;8.13;;;4.33;;
74967;SDS011;63523;51.880;12.630;2023-07-20T01:38:42;7.88;;;3.60;;
74967;SDS011;63523;51.880;12.630;2023-07-20T01:41:08;8.32;;;3.60;;
74967;SDS011;63523;51.880;12.630;2023-07-20T01:43:34;6.15;;;3.58;;
74967;SDS011;63523;51.880;12.630;2023-07-20T01:45:59;9.27;;;4.50;;
74967;SDS011;63523;51.880;12.630;2023-07-20T01:48:25;11.93;;;5.80;;
74967;SDS011;63523;51.880;12.630;2023-07-20T01:50:50;14.83;;;7.10;;
74967;SDS011;63523;51.880;12.630;2023-07-20T01:53:15;18.17;;;8.10;;
74967;SDS011;63523;51.880;12.630;2023-07-20T01:55:41;15.70;;;7.90;;
74967;SDS011;63523;51.880;12.630;2023-07-20T01:58:06;21.93;;;9.57;;
74967;SDS011;63523;51.880;12.630;2023-07-20T02:00:32;29.00;;;12.37;;
74967;SDS011;63523;51.880;12.630;2023-07-20T02:02:57;28.97;;;11.80;;
74967;SDS011;63523;51.880;12.630;2023-07-20T02:05:22;25.37;;;11.40;;
74967;SDS011;63523;51.880;12.630;2023-07-20T02:07:47;26.47;;;11.33;;
74967;SDS011;63523;51.880;12.630;2023-07-20T02:10:13;13.43;;;5.90;;
74967;SDS011;63523;51.880;12.630;2023-07-20T02:12:38;8.43;;;4.32;;
74967;SDS011;63523;51.880;12.630;2023-07-20T02:15:04;7.87;;;3.80;;
74967;SDS011;63523;51.880;12.630;2023-07-20T02:17:29;6.57;;;3.33;;
74967;SDS011;63523;51.880;12.630;2023-07-20T02:19:55;7.03;;;2.95;;
74967;SDS011;63523;51.880;12.630;2023-07-20T02:22:22;7.20;;;3.23;;
74967;SDS011;63523;51.880;12.630;2023-07-20T02:24:48;8.27;;;3.33;;
74967;SDS011;63523;51.880;12.630;2023-07-20T02:27:14;5.75;;;3.00;;
74967;SDS011;63523;51.880;12.630;2023-07-20T02:29:40;5.83;;;3.13;;
74967;SDS011;63523;51.880;12.630;2023-07-20T02:32:06;5.30;;;3.20;;
74967;SDS011;63523;51.880;12.630;2023-07-20T02:34:32;6.13;;;3.03;;
74967;SDS011;63523;51.880;12.630;2023-07-20T02:36:58;6.40;;;3.30;;
74967;SDS011;63523;51.880;12.630;2023-07-20T02:39:26;5.82;;;3.20;;
74967;SDS011;63523;51.880;12.630;2023-07-20T02:41:52;8.00;;;3.10;;
74967;SDS011;63523;51.880;12.630;2023-07-20T02:44:18;6.53;;;2.87;;
74967;SDS011;63523;51.880;12.630;2023-07-20T02:46:43;7.30;;;2.95;;
74967;SDS011;63523;51.880;12.630;2023-07-20T02:49:08;6.03;;;3.00;;
74967;SDS011;63523;51.880;12.630;2023-07-20T02:51:34;6.77;;;3.17;;
74967;SDS011;63523;51.880;12.630;2023-07-20T02:53:59;6.83;;;3.20;;
74967;SDS011;63523;51.880;12.630;2023-07-20T02:56:25;7.90;;;3.15;;
74967;SDS011;63523;51.880;12.630;2023-07-20T02:58:50;5.20;;;3.03;;
74967;SDS011;63523;51.880;12.630;2023-07-20T03:01:16;5.87;;;3.27;;
74967;SDS011;63523;51.880;12.630;2023-07-20T03:03:44;6.50;;;3.20;;
74967;SDS011;63523;51.880;12.630;2023-07-20T03:06:13;5.65;;;3.20;;
74967;SDS011;63523;51.880;12.630;2023-07-20T03:08:39;6.35;;;3.10;;
74967;SDS011;63523;51.880;12.630;2023-07-20T03:11:06;6.28;;;3.20;;
74967;SDS011;63523;51.880;12.630;2023-07-20T03:13:32;8.07;;;2.97;;
74967;SDS011;63523;51.880;12.630;2023-07-20T03:15:57;6.23;;;3.30;;
74967;SDS011;63523;51.880;12.630;2023-07-20T03:18:22;7.93;;;3.20;;
74967;SDS011;63523;51.880;12.630;2023-07-20T03:20:48;5.70;;;2.93;;
74967;SDS011;63523;51.880;12.630;2023-07-20T03:23:13;5.40;;;2.83;;
74967;SDS011;63523;51.880;12.630;2023-07-20T03:25:40;6.00;;;3.00;;
74967;SDS011;63523;51.880;12.630;2023-07-20T03:28:05;6.37;;;3.10;;
74967;SDS011;63523;51.880;12.630;2023-07-20T03:30:31;5.80;;;2.80;;
74967;SDS011;63523;51.880;12.630;2023-07-20T03:32:56;6.80;;;3.00;;
74967;SDS011;63523;51.880;12.630;2023-07-20T03:35:21;7.30;;;3.07;;
74967;SDS011;63523;51.880;12.630;2023-07-20T03:37:47;5.85;;;3.22;;
74967;SDS011;63523;51.880;12.630;2023-07-20T03:40:12;6.30;;;3.60;;
74967;SDS011;63523;51.880;12.630;2023-07-20T03:42:39;5.63;;;2.95;;
74967;SDS011;63523;51.880;12.630;2023-07-20T03:45:05;6.63;;;3.03;;
74967;SDS011;63523;51.880;12.630;2023-07-20T03:47:31;5.75;;;3.47;;
74967;SDS011;63523;51.880;12.630;2023-07-20T03:49:56;6.13;;;3.03;;
74967;SDS011;63523;51.880;12.630;2023-07-20T03:52:22;6.37;;;3.17;;
74967;SDS011;63523;51.880;12.630;2023-07-20T03:54:48;7.45;;;3.40;;
74967;SDS011;63523;51.880;12.630;2023-07-20T03:57:13;9.17;;;3.63;;
74967;SDS011;63523;51.880;12.630;2023-07-20T03:59:38;6.80;;;3.10;;
74967;SDS011;63523;51.880;12.630;2023-07-20T04:02:04;5.90;;;3.67;;
74967;SDS011;63523;51.880;12.630;2023-07-20T04:04:30;7.20;;;3.38;;
74967;SDS011;63523;51.880;12.630;2023-07-20T04:06:56;5.68;;;3.28;;
74967;SDS011;63523;51.880;12.630;2023-07-20T04:09:21;5.30;;;3.30;;
74967;SDS011;63523;51.880;12.630;2023-07-20T04:11:47;6.40;;;2.90;;
74967;SDS011;63523;51.880;12.630;2023-07-20T04:14:12;5.77;;;3.10;;
74967;SDS011;63523;51.880;12.630;2023-07-20T04:16:37;6.00;;;3.10;;
74967;SDS011;63523;51.880;12.630;2023-07-20T04:19:03;6.20;;;3.63;;
74967;SDS011;63523;51.880;12.630;2023-07-20T04:21:28;5.63;;;3.40;;
74967;SDS011;63523;51.880;12.630;2023-07-20T04:23:53;6.70;;;3.00;;
74967;SDS011;63523;51.880;12.630;2023-07-20T04:26:19;5.43;;;3.23;;
74967;SDS011;63523;51.880;12.630;2023-07-20T04:28:44;5.63;;;3.27;;
74967;SDS011;63523;51.880;12.630;2023-07-20T04:31:10;6.97;;;3.93;;
74967;SDS011;63523;51.880;12.630;2023-07-20T04:33:37;5.80;;;3.15;;
74967;SDS011;63523;51.880;12.630;2023-07-20T04:36:02;5.57;;;3.43;;
74967;SDS011;63523;51.880;12.630;2023-07-20T04:38:28;5.67;;;3.50;;
74967;SDS011;63523;51.880;12.630;2023-07-20T04:40:53;5.90;;;3.17;;
74967;SDS011;63523;51.880;12.630;2023-07-20T04:43:18;6.15;;;3.38;;
74967;SDS011;63523;51.880;12.630;2023-07-20T04:45:44;6.20;;;3.23;;
74967;SDS011;63523;51.880;12.630;2023-07-20T04:48:10;5.50;;;2.90;;
74967;SDS011;63523;51.880;12.630;2023-07-20T04:50:36;6.63;;;3.30;;
74967;SDS011;63523;51.880;12.630;2023-07-20T04:53:02;5.63;;;3.58;;
74967;SDS011;63523;51.880;12.630;2023-07-20T04:55:28;5.80;;;3.30;;
74967;SDS011;63523;51.880;12.630;2023-07-20T04:57:53;5.97;;;3.27;;
74967;SDS011;63523;51.880;12.630;2023-07-20T05:00:19;8.60;;;3.87;;
74967;SDS011;63523;51.880;12.630;2023-07-20T05:02:44;5.05;;;3.15;;
74967;SDS011;63523;51.880;12.630;2023-07-20T05:05:12;6.55;;;3.38;;
74967;SDS011;63523;51.880;12.630;2023-07-20T05:07:38;5.82;;;3.60;;
74967;SDS011;63523;51.880;12.630;2023-07-20T05:10:03;5.77;;;3.27;;
74967;SDS011;63523;51.880;12.630;2023-07-20T05:12:29;6.20;;;3.20;;
74967;SDS011;63523;51.880;12.630;2023-07-20T05:14:54;5.97;;;3.33;;
74967;SDS011;63523;51.880;12.630;2023-07-20T05:17:20;5.67;;;3.13;;
74967;SDS011;63523;51.880;12.630;2023-07-20T05:19:45;6.70;;;3.40;;
74967;SDS011;63523;51.880;12.630;2023-07-20T05:22:11;6.87;;;2.97;;
74967;SDS011;63523;51.880;12.630;2023-07-20T05:24:38;6.22;;;3.40;;
74967;SDS011;63523;51.880;12.630;2023-07-20T05:27:04;5.90;;;3.40;;
74967;SDS011;63523;51.880;12.630;2023-07-20T05:29:29;6.90;;;3.50;;
74967;SDS011;63523;51.880;12.630;2023-07-20T05:31:54;6.37;;;3.73;;
74967;SDS011;63523;51.880;12.630;2023-07-20T05:34:20;6.93;;;3.40;;
74967;SDS011;63523;51.880;12.630;2023-07-20T05:36:46;6.45;;;3.40;;
74967;SDS011;63523;51.880;12.630;2023-07-20T05:39:11;7.50;;;3.70;;
74967;SDS011;63523;51.880;12.630;2023-07-20T05:41:36;6.30;;;3.37;;
74967;SDS011;63523;51.880;12.630;2023-07-20T05:44:01;6.03;;;3.20;;
74967;SDS011;63523;51.880;12.630;2023-07-20T05:46:27;6.18;;;3.05;;
74967;SDS011;63523;51.880;12.630;2023-07-20T05:48:52;5.60;;;2.93;;
74967;SDS011;63523;51.880;12.630;2023-07-20T05:51:17;5.70;;;3.00;;
74967;SDS011;63523;51.880;12.630;2023-07-20T05:53:43;5.83;;;2.80;;
74967;SDS011;63523;51.880;12.630;2023-07-20T05:56:08;4.80;;;2.87;;
74967;SDS011;63523;51.880;12.630;2023-07-20T05:58:35;6.13;;;3.35;;
74967;SDS011;63523;51.880;12.630;2023-07-20T06:01:01;7.22;;;2.65;;
74967;SDS011;63523;51.880;12.630;2023-07-20T06:03:27;4.27;;;2.50;;
74967;SDS011;63523;51.880;12.630;2023-07-20T06:05:57;4.65;;;2.60;;
74967;SDS011;63523;51.880;12.630;2023-07-20T06:08:23;5.65;;;2.63;;
74967;SDS011;63523;51.880;12.630;2023-07-20T06:10:49;4.80;;;2.27;;
74967;SDS011;63523;51.880;12.630;2023-07-20T06:13:17;5.50;;;2.28;;
74967;SDS011;63523;51.880;12.630;2023-07-20T06:15:42;4.80;;;2.57;;
74967;SDS011;63523;51.880;12.630;2023-07-20T06:18:08;4.22;;;2.30;;
74967;SDS011;63523;51.880;12.630;2023-07-20T06:20:33;5.27;;;1.93;;
74967;SDS011;63523;51.880;12.630;2023-07-20T06:22:58;5.37;;;2.30;;
74967;SDS011;63523;51.880;12.630;2023-07-20T06:25:24;5.17;;;1.80;;
74967;SDS011;63523;51.880;12.630;2023-07-20T06:27:49;4.60;;;1.90;;
74967;SDS011;63523;51.880;12.630;2023-07-20T06:30:16;4.53;;;1.80;;
74967;SDS011;63523;51.880;12.630;2023-07-20T06:32:42;4.35;;;1.70;;
74967;SDS011;63523;51.880;12.630;2023-07-20T06:35:07;3.83;;;1.63;;
74967;SDS011;63523;51.880;12.630;2023-07-20T06:37:33;3.88;;;1.38;;
74967;SDS011;63523;51.880;12.630;2023-07-20T06:39:59;3.40;;;1.60;;
74967;SDS011;63523;51.880;12.630;2023-07-20T06:42:24;3.67;;;1.60;;
74967;SDS011;63523;51.880;12.630;2023-07-20T06:44:49;3.00;;;1.00;;
74967;SDS011;63523;51.880;12.630;2023-07-20T06:47:14;2.33;;;0.73;;
74967;SDS011;63523;51.880;12.630;2023-07-20T06:49:40;2.70;;;1.00;;
74967;SDS011;63523;51.880;12.630;2023-07-20T06:52:06;3.10;;;0.70;;
74967;SDS011;63523;51.880;12.630;2023-07-20T06:54:31;2.70;;;1.10;;
74967;SDS011;63523;51.880;12.630;2023-07-20T06:56:57;3.55;;;1.10;;
74967;SDS011;63523;51.880;12.630;2023-07-20T06:59:22;3.27;;;1.07;;
74967;SDS011;63523;51.880;12.630;2023-07-20T07:01:49;2.97;;;0.88;;
74967;SDS011;63523;51.880;12.630;2023-07-20T07:04:14;3.17;;;0.73;;
74967;SDS011;63523;51.880;12.630;2023-07-20T07:06:39;2.23;;;0.60;;
74967;SDS011;63523;51.880;12.630;2023-07-20T07:09:05;1.93;;;0.60;;
74967;SDS011;63523;51.880;12.630;2023-07-20T07:11:30;2.83;;;0.90;;
74967;SDS011;63523;51.880;12.630;2023-07-20T07:13:56;2.50;;;0.70;;
74967;SDS011;63523;51.880;12.630;2023-07-20T07:16:21;2.30;;;0.70;;
74967;SDS011;63523;51.880;12.630;2023-07-20T07:18:46;2.67;;;0.80;;
74967;SDS011;63523;51.880;12.630;2023-07-20T07:21:12;2.10;;;0.70;;
74967;SDS011;63523;51.880;12.630;2023-07-20T07:23:38;2.17;;;0.70;;
74967;SDS011;63523;51.880;12.630;2023-07-20T07:26:04;3.05;;;0.77;;
74967;SDS011;63523;51.880;12.630;2023-07-20T07:28:29;2.80;;;0.70;;
74967;SDS011;63523;51.880;12.630;2023-07-20T07:30:55;2.33;;;0.60;;
74967;SDS011;63523;51.880;12.630;2023-07-20T07:33:22;2.10;;;0.68;;
74967;SDS011;63523;51.880;12.630;2023-07-20T07:35:47;2.13;;;0.60;;
74967;SDS011;63523;51.880;12.630;2023-07-20T07:38:12;2.30;;;0.80;;
74967;SDS011;63523;51.880;12.630;2023-07-20T07:40:38;3.00;;;0.73;;
74967;SDS011;63523;51.880;12.630;2023-07-20T07:43:03;1.90;;;0.40;;
74967;SDS011;63523;51.880;12.630;2023-07-20T07:45:28;2.37;;;0.63;;
74967;SDS011;63523;51.880;12.630;2023-07-20T07:47:54;1.83;;;0.37;;
74967;SDS011;63523;51.880;12.630;2023-07-20T07:50:19;2.53;;;0.40;;
74967;SDS011;63523;51.880;12.630;2023-07-20T07:52:44;1.70;;;0.30;;
74967;SDS011;63523;51.880;12.630;2023-07-20T07:55:10;2.25;;;0.50;;
74967;SDS011;63523;51.880;12.630;2023-07-20T07:57:35;1.63;;;0.40;;
74967;SDS011;63523;51.880;12.630;2023-07-20T08:00:00;2.87;;;0.50;;
74967;SDS011;63523;51.880;12.630;2023-07-20T08:02:26;2.93;;;0.47;;
74967;SDS011;63523;51.880;12.630;2023-07-20T08:04:51;3.03;;;0.40;;
74967;SDS011;63523;51.880;12.630;2023-07-20T08:07:17;2.97;;;0.50;;
74967;SDS011;63523;51.880;12.630;2023-07-20T08:09:42;2.40;;;0.47;;
74967;SDS011;63523;51.880;12.630;2023-07-20T08:12:08;1.87;;;0.50;;
74967;SDS011;63523;51.880;12.630;2023-07-20T08:14:33;3.10;;;0.50;;
74967;SDS011;63523;51.880;12.630;2023-07-20T08:16:59;1.77;;;0.40;;
74967;SDS011;63523;51.880;12.630;2023-07-20T08:19:24;2.30;;;0.50;;
74967;SDS011;63523;51.880;12.630;2023-07-20T08:21:49;2.57;;;0.50;;
74967;SDS011;63523;51.880;12.630;2023-07-20T08:24:15;1.97;;;0.40;;
74967;SDS011;63523;51.880;12.630;2023-07-20T08:26:40;2.07;;;0.50;;
74967;SDS011;63523;51.880;12.630;2023-07-20T08:29:05;2.30;;;0.73;;
74967;SDS011;63523;51.880;12.630;2023-07-20T08:31:31;2.40;;;0.50;;
74967;SDS011;63523;51.880;12.630;2023-07-20T08:33:56;1.97;;;0.50;;
74967;SDS011;63523;51.880;12.630;2023-07-20T08:36:22;2.23;;;0.57;;
74967;SDS011;63523;51.880;12.630;2023-07-20T08:38:47;1.90;;;0.50;;
74967;SDS011;63523;51.880;12.630;2023-07-20T08:41:13;2.30;;;0.60;;
74967;SDS011;63523;51.880;12.630;2023-07-20T08:43:39;3.33;;;0.50;;
74967;SDS011;63523;51.880;12.630;2023-07-20T08:46:08;1.80;;;0.40;;
74967;SDS011;63523;51.880;12.630;2023-07-20T08:48:37;2.13;;;0.50;;
74967;SDS011;63523;51.880;12.630;2023-07-20T08:51:04;3.03;;;0.60;;
74967;SDS011;63523;51.880;12.630;2023-07-20T08:53:29;2.00;;;0.50;;
74967;SDS011;63523;51.880;12.630;2023-07-20T08:55:57;2.42;;;0.70;;
74967;SDS011;63523;51.880;12.630;2023-07-20T08:58:24;4.05;;;0.90;;
74967;SDS011;63523;51.880;12.630;2023-07-20T09:00:51;2.55;;;0.68;;
74967;SDS011;63523;51.880;12.630;2023-07-20T09:03:18;3.17;;;1.03;;
74967;SDS011;63523;51.880;12.630;2023-07-20T09:05:44;2.38;;;0.70;;
74967;SDS011;63523;51.880;12.630;2023-07-20T09:08:10;2.95;;;0.68;;
74967;SDS011;63523;51.880;12.630;2023-07-20T09:10:35;2.10;;;0.40;;
74967;SDS011;63523;51.880;12.630;2023-07-20T09:13:01;2.33;;;0.50;;
74967;SDS011;63523;51.880;12.630;2023-07-20T09:15:26;3.33;;;0.60;;
74967;SDS011;63523;51.880;12.630;2023-07-20T09:17:51;1.88;;;0.40;;
74967;SDS011;63523;51.880;12.630;2023-07-20T09:20:19;1.98;;;0.40;;
74967;SDS011;63523;51.880;12.630;2023-07-20T09:22:45;2.57;;;0.80;;
74967;SDS011;63523;51.880;12.630;2023-07-20T09:25:15;1.85;;;0.30;;
74967;SDS011;63523;51.880;12.630;2023-07-20T09:27:43;1.75;;;0.30;;
74967;SDS011;63523;51.880;12.630;2023-07-20T09:30:12;1.90;;;0.40;;
74967;SDS011;63523;51.880;12.630;2023-07-20T09:32:42;1.60;;;0.20;;
74967;SDS011;63523;51.880;12.630;2023-07-20T09:35:13;1.47;;;0.30;;
74967;SDS011;63523;51.880;12.630;2023-07-20T09:37:39;3.30;;;0.40;;
74967;SDS011;63523;51.880;12.630;2023-07-20T09:40:05;1.70;;;0.30;;
74967;SDS011;63523;51.880;12.630;2023-07-20T09:42:33;2.10;;;0.52;;
74967;SDS011;63523;51.880;12.630;2023-07-20T09:45:00;1.95;;;0.30;;
74967;SDS011;63523;51.880;12.630;2023-07-20T09:47:25;1.23;;;0.23;;
74967;SDS011;63523;51.880;12.630;2023-07-20T09:49:57;3.20;;;0.30;;
74967;SDS011;63523;51.880;12.630;2023-07-20T09:52:24;1.85;;;0.25;;
74967;SDS011;63523;51.880;12.630;2023-07-20T09:54:50;1.90;;;0.30;;
74967;SDS011;63523;51.880;12.630;2023-07-20T09:57:16;1.40;;;0.20;;
74967;SDS011;63523;51.880;12.630;2023-07-20T09:59:41;2.07;;;0.30;;
74967;SDS011;63523;51.880;12.630;2023-07-20T10:02:09;2.13;;;0.40;;
74967;SDS011;63523;51.880;12.630;2023-07-20T10:04:41;1.17;;;0.27;;
74967;SDS011;63523;51.880;12.630;2023-07-20T10:07:08;2.30;;;0.30;;
74967;SDS011;63523;51.880;12.630;2023-07-20T10:09:37;1.50;;;0.20;;
74967;SDS011;63523;51.880;12.630;2023-07-20T10:12:05;1.85;;;0.20;;
74967;SDS011;63523;51.880;12.630;2023-07-20T10:14:32;3.40;;;0.20;;
74967;SDS011;63523;51.880;12.630;2023-07-20T10:17:03;1.53;;;0.20;;
74967;SDS011;63523;51.880;12.630;2023-07-20T10:19:33;1.90;;;0.28;;
74967;SDS011;63523;51.880;12.630;2023-07-20T10:22:08;1.42;;;0.20;;
74967;SDS011;63523;51.880;12.630;2023-07-20T10:24:39;1.55;;;0.20;;
74967;SDS011;63523;51.880;12.630;2023-07-20T10:27:06;1.30;;;0.20;;
74967;SDS011;63523;51.880;12.630;2023-07-20T10:29:32;1.00;;;0.10;;
74967;SDS011;63523;51.880;12.630;2023-07-20T10:31:58;3.00;;;0.20;;
74967;SDS011;63523;51.880;12.630;2023-07-20T10:34:23;1.87;;;0.20;;
74967;SDS011;63523;51.880;12.630;2023-07-20T10:36:49;1.57;;;0.20;;
74967;SDS011;63523;51.880;12.630;2023-07-20T10:39:32;1.60;;;0.20;;
74967;SDS011;63523;51.880;12.630;2023-07-20T10:44:27;2.53;;;0.22;;
74967;SDS011;63523;51.880;12.630;2023-07-20T10:46:52;1.77;;;0.20;;
74967;SDS011;63523;51.880;12.630;2023-07-20T10:49:27;1.55;;;0.30;;
74967;SDS011;63523;51.880;12.630;2023-07-20T10:51:56;1.47;;;0.20;;
74967;SDS011;63523;51.880;12.630;2023-07-20T10:56:49;1.83;;;0.30;;
74967;SDS011;63523;51.880;12.630;2023-07-20T11:01:45;1.60;;;0.22;;
74967;SDS011;63523;51.880;12.630;2023-07-20T11:04:12;2.05;;;0.30;;
74967;SDS011;63523;51.880;12.630;2023-07-20T11:06:37;2.30;;;0.30;;
74967;SDS011;63523;51.880;12.630;2023-07-20T11:09:08;2.20;;;0.30;;
74967;SDS011;63523;51.880;12.630;2023-07-20T11:11:36;1.48;;;0.20;;
74967;SDS011;63523;51.880;12.630;2023-07-20T11:14:04;1.40;;;0.30;;
74967;SDS011;63523;51.880;12.630;2023-07-20T11:16:35;1.48;;;0.38;;
74967;SDS011;63523;51.880;12.630;2023-07-20T11:19:00;1.63;;;0.35;;
74967;SDS011;63523;51.880;12.630;2023-07-20T11:21:26;3.20;;;0.38;;
74967;SDS011;63523;51.880;12.630;2023-07-20T11:23:52;2.47;;;0.40;;
74967;SDS011;63523;51.880;12.630;2023-07-20T11:26:18;1.27;;;0.30;;
74967;SDS011;63523;51.880;12.630;2023-07-20T11:28:48;1.90;;;0.20;;
74967;SDS011;63523;51.880;12.630;2023-07-20T11:31:17;2.40;;;0.30;;
74967;SDS011;63523;51.880;12.630;2023-07-20T11:33:46;3.47;;;0.30;;
74967;SDS011;63523;51.880;12.630;2023-07-20T11:36:11;1.65;;;0.20;;
74967;SDS011;63523;51.880;12.630;2023-07-20T11:38:38;2.58;;;0.45;;
74967;SDS011;63523;51.880;12.630;2023-07-20T11:41:06;1.17;;;0.20;;
74967;SDS011;63523;51.880;12.630;2023-07-20T11:43:32;2.87;;;0.30;;
74967;SDS011;63523;51.880;12.630;2023-07-20T11:45:57;1.43;;;0.30;;
74967;SDS011;63523;51.880;12.630;2023-07-20T11:48:22;1.90;;;0.37;;
74967;SDS011;63523;51.880;12.630;2023-07-20T11:50:48;1.38;;;0.30;;
74967;SDS011;63523;51.880;12.630;2023-07-20T11:53:13;1.40;;;0.30;;
74967;SDS011;63523;51.880;12.630;2023-07-20T11:55:40;2.85;;;0.40;;
74967;SDS011;63523;51.880;12.630;2023-07-20T11:58:06;2.43;;;0.30;;
74967;SDS011;63523;51.880;12.630;2023-07-20T12:00:33;3.03;;;0.32;;
74967;SDS011;63523;51.880;12.630;2023-07-20T12:03:00;1.67;;;0.40;;
74967;SDS011;63523;51.880;12.630;2023-07-20T12:05:25;3.70;;;0.50;;
74967;SDS011;63523;51.880;12.630;2023-07-20T12:07:51;2.77;;;0.50;;
74967;SDS011;63523;51.880;12.630;2023-07-20T12:10:22;2.90;;;0.82;;
74967;SDS011;63523;51.880;12.630;2023-07-20T12:12:50;2.50;;;0.40;;
74967;SDS011;63523;51.880;12.630;2023-07-20T12:15:16;1.38;;;0.20;;
74967;SDS011;63523;51.880;12.630;2023-07-20T12:17:45;1.90;;;0.40;;
74967;SDS011;63523;51.880;12.630;2023-07-20T12:20:11;1.77;;;0.30;;
74967;SDS011;63523;51.880;12.630;2023-07-20T12:22:40;1.77;;;0.30;;
74967;SDS011;63523;51.880;12.630;2023-07-20T12:25:08;1.80;;;0.40;;
74967;SDS011;63523;51.880;12.630;2023-07-20T12:27:37;1.50;;;0.30;;
74967;SDS011;63523;51.880;12.630;2023-07-20T12:30:03;1.23;;;0.20;;
74967;SDS011;63523;51.880;12.630;2023-07-20T12:32:32;1.20;;;0.30;;
74967;SDS011;63523;51.880;12.630;2023-07-20T12:34:58;4.07;;;1.25;;
74967;SDS011;63523;51.880;12.630;2023-07-20T12:37:25;2.42;;;0.50;;
74967;SDS011;63523;51.880;12.630;2023-07-20T12:39:51;1.30;;;0.20;;
74967;SDS011;63523;51.880;12.630;2023-07-20T12:42:16;1.40;;;0.30;;
74967;SDS011;63523;51.880;12.630;2023-07-20T12:44:42;1.50;;;0.30;;
74967;SDS011;63523;51.880;12.630;2023-07-20T12:47:07;3.70;;;0.53;;
74967;SDS011;63523;51.880;12.630;2023-07-20T12:49:32;2.70;;;0.30;;
74967;SDS011;63523;51.880;12.630;2023-07-20T12:51:58;2.63;;;0.30;;
74967;SDS011;63523;51.880;12.630;2023-07-20T12:54:23;2.63;;;0.40;;
74967;SDS011;63523;51.880;12.630;2023-07-20T12:56:48;1.90;;;0.50;;
74967;SDS011;63523;51.880;12.630;2023-07-20T12:59:14;1.67;;;0.33;;
74967;SDS011;63523;51.880;12.630;2023-07-20T13:01:39;1.70;;;0.37;;
74967;SDS011;63523;51.880;12.630;2023-07-20T13:04:06;1.83;;;0.25;;
74967;SDS011;63523;51.880;12.630;2023-07-20T13:06:34;1.90;;;0.28;;
74967;SDS011;63523;51.880;12.630;2023-07-20T13:08:59;1.93;;;0.30;;
74967;SDS011;63523;51.880;12.630;2023-07-20T13:11:25;1.43;;;0.20;;
74967;SDS011;63523;51.880;12.630;2023-07-20T13:13:51;2.08;;;0.20;;
74967;SDS011;63523;51.880;12.630;2023-07-20T13:16:16;1.73;;;0.30;;
74967;SDS011;63523;51.880;12.630;2023-07-20T13:18:41;1.70;;;0.28;;
74967;SDS011;63523;51.880;12.630;2023-07-20T13:21:07;1.40;;;0.23;;
74967;SDS011;63523;51.880;12.630;2023-07-20T13:23:35;1.53;;;0.20;;
74967;SDS011;63523;51.880;12.630;2023-07-20T13:26:02;1.27;;;0.20;;
74967;SDS011;63523;51.880;12.630;2023-07-20T13:28:28;2.40;;;0.20;;
74967;SDS011;63523;51.880;12.630;2023-07-20T13:30:53;0.90;;;0.10;;
74967;SDS011;63523;51.880;12.630;2023-07-20T13:33:18;1.97;;;0.20;;
74967;SDS011;63523;51.880;12.630;2023-07-20T13:35:44;1.95;;;0.28;;
74967;SDS011;63523;51.880;12.630;2023-07-20T13:38:09;1.30;;;0.20;;
74967;SDS011;63523;51.880;12.630;2023-07-20T13:40:35;1.30;;;0.20;;
74967;SDS011;63523;51.880;12.630;2023-07-20T13:43:01;1.37;;;0.20;;
74967;SDS011;63523;51.880;12.630;2023-07-20T13:45:27;1.90;;;0.45;;
74967;SDS011;63523;51.880;12.630;2023-07-20T13:47:52;0.87;;;0.10;;
74967;SDS011;63523;51.880;12.630;2023-07-20T13:50:17;1.77;;;0.20;;
74967;SDS011;63523;51.880;12.630;2023-07-20T13:52:43;2.23;;;0.30;;
74967;SDS011;63523;51.880;12.630;2023-07-20T13:55:08;1.83;;;0.20;;
74967;SDS011;63523;51.880;12.630;2023-07-20T13:57:33;1.40;;;0.20;;
74967;SDS011;63523;51.880;12.630;2023-07-20T13:59:59;1.27;;;0.20;;
74967;SDS011;63523;51.880;12.630;2023-07-20T14:02:25;1.20;;;0.20;;
74967;SDS011;63523;51.880;12.630;2023-07-20T14:04:51;2.70;;;0.20;;
74967;SDS011;63523;51.880;12.630;2023-07-20T14:07:16;1.23;;;0.25;;
74967;SDS011;63523;51.880;12.630;2023-07-20T14:09:43;1.20;;;0.20;;
74967;SDS011;63523;51.880;12.630;2023-07-20T14:12:08;1.25;;;0.20;;
74967;SDS011;63523;51.880;12.630;2023-07-20T14:14:36;2.03;;;0.20;;
74967;SDS011;63523;51.880;12.630;2023-07-20T14:17:01;1.60;;;0.20;;
74967;SDS011;63523;51.880;12.630;2023-07-20T14:19:27;3.07;;;0.30;;
74967;SDS011;63523;51.880;12.630;2023-07-20T14:21:52;2.67;;;0.20;;
74967;SDS011;63523;51.880;12.630;2023-07-20T14:24:17;1.83;;;0.20;;
74967;SDS011;63523;51.880;12.630;2023-07-20T14:26:43;1.00;;;0.10;;
74967;SDS011;63523;51.880;12.630;2023-07-20T14:29:08;1.63;;;0.20;;
74967;SDS011;63523;51.880;12.630;2023-07-20T14:31:33;1.63;;;0.30;;
74967;SDS011;63523;51.880;12.630;2023-07-20T14:33:59;2.10;;;0.17;;
74967;SDS011;63523;51.880;12.630;2023-07-20T14:36:24;1.23;;;0.20;;
74967;SDS011;63523;51.880;12.630;2023-07-20T14:38:49;1.30;;;0.20;;
74967;SDS011;63523;51.880;12.630;2023-07-20T14:41:15;1.20;;;0.20;;